Wauregan, Connecticut
Current Conditions -  °F | °C
As of 8:52 PM on Wednesday 17 Dec 2014 (Local Time) from KIJD Reporting Station
Overcast Overcast  
Wind Chill: 39°   Ceiling: 7500
Heat Index: 43°   Visibility: 10mi
Dew Point: 32°   Wind: 7mph
Humidity: 65%   Direction: NA
Pressure: 29.8"   Gusts: NA
Location:  41.75°N, 71.91°W
Report Text: KIJD 180152Z AUTO VRB06KT 10SM OVC075 06/00 A2980 RMK AO2 SLP090 T00610000
Loading
Personal Weather Stations






























Interactive Weather Map New forecast layout! Learn more

10-Day Weather Forecast

Advertisements
Track Severe Weather on mobile